Time;durP1;ratioP1;P1;durP2;ratioP2;P2;SDS_P1;SDS_P2;PMS_P1;PMS_P2;Temp;Humidity;BMP_temperature;BMP_pressure;BME280_temperature;BME280_humidity;BME280_pressure;Samples;Min_cycle;Max_cycle;Signal;HPM_P1;HPM_P2
2023/09/13 00:00:50;;;;;;;23.93;16.70;;;17.00;99.90;16.40;100150;;;;568996;248;24128;-78
2023/09/13 00:03:18;;;;;;;22.47;16.80;;;17.00;99.90;16.40;100149;;;;568646;248;24081;-78
2023/09/13 00:05:46;;;;;;;21.33;16.13;;;17.00;99.90;16.40;100140;;;;568665;248;24175;-77
2023/09/13 00:08:13;;;;;;;24.37;16.73;;;17.00;99.90;16.40;100142;;;;568690;248;24104;-77
2023/09/13 00:10:44;;;;;;;19.60;15.87;;;16.90;99.90;16.40;100149;;;;568569;248;24090;-79
2023/09/13 00:13:14;;;;;;;25.07;16.73;;;16.90;99.90;16.30;100147;;;;568473;248;24073;-77
2023/09/13 00:15:45;;;;;;;22.20;17.30;;;16.90;99.90;16.30;100141;;;;568162;248;24097;-76
2023/09/13 00:18:16;;;;;;;23.40;16.67;;;16.80;99.90;16.30;100145;;;;568540;248;24138;-77
2023/09/13 00:20:45;;;;;;;22.90;16.97;;;16.90;99.90;16.30;100135;;;;568551;248;24110;-77
2023/09/13 00:23:13;;;;;;;25.23;18.53;;;16.90;99.90;16.30;100134;;;;568520;248;24103;-77
2023/09/13 00:25:42;;;;;;;27.30;18.23;;;16.90;99.90;16.30;100130;;;;568178;248;24099;-77
2023/09/13 00:28:11;;;;;;;26.17;18.77;;;16.80;99.90;16.20;100137;;;;567980;249;24082;-77
2023/09/13 00:30:39;;;;;;;24.97;18.17;;;16.80;99.90;16.20;100134;;;;576660;248;24064;-77
2023/09/13 00:33:07;;;;;;;20.20;16.90;;;16.80;99.90;16.20;100133;;;;567919;249;24144;-76
2023/09/13 00:35:35;;;;;;;28.13;17.70;;;16.80;99.90;16.10;100127;;;;568300;249;24081;-77
2023/09/13 00:38:07;;;;;;;26.07;18.10;;;16.70;99.90;16.10;100125;;;;568308;247;24088;-76
2023/09/13 00:40:36;;;;;;;28.87;19.87;;;16.70;99.90;16.10;100118;;;;567975;249;24102;-77
2023/09/13 00:43:01;;;;;;;33.03;20.17;;;16.70;99.90;16.10;100116;;;;564196;249;24125;-77
2023/09/13 00:45:33;;;;;;;26.47;17.67;;;16.70;99.90;16.10;100119;;;;576903;248;24073;-76
2023/09/13 00:48:01;;;;;;;28.97;18.93;;;16.70;99.90;16.10;100111;;;;568040;249;24107;-76
2023/09/13 00:50:26;;;;;;;31.63;17.67;;;16.70;99.90;16.10;100108;;;;568029;249;24088;-77
2023/09/13 00:52:55;;;;;;;24.63;17.83;;;16.70;99.90;16.10;100102;;;;568179;249;24096;-77
2023/09/13 00:55:25;;;;;;;29.70;19.40;;;16.60;99.90;16.10;100104;;;;567908;249;24081;-77
2023/09/13 00:57:54;;;;;;;29.13;19.83;;;16.60;99.90;16.10;100123;;;;567803;249;24094;-76
2023/09/13 01:00:19;;;;;;;22.90;17.77;;;16.60;99.90;16.00;100132;;;;567846;249;24122;-76
2023/09/13 01:02:47;;;;;;;26.70;19.27;;;16.60;99.90;16.00;100135;;;;568207;247;24095;-76
2023/09/13 01:05:15;;;;;;;28.17;18.87;;;16.60;99.90;16.10;100124;;;;569310;248;24102;-77
2023/09/13 01:07:43;;;;;;;29.63;18.70;;;16.60;99.90;16.10;100114;;;;569805;247;24141;-77
2023/09/13 01:10:14;;;;;;;26.97;19.90;;;16.60;99.90;16.10;100117;;;;577147;248;24089;-76
2023/09/13 01:12:39;;;;;;;29.10;20.37;;;16.70;99.90;16.10;100116;;;;568433;248;24114;-75
2023/09/13 01:15:12;;;;;;;30.17;20.10;;;16.70;99.90;16.10;100104;;;;577008;248;24143;-75
2023/09/13 01:18:00;;;;;;;26.47;19.20;;;16.60;99.90;16.10;100101;;;;568323;248;24077;-76
2023/09/13 01:21:12;;;;;;;27.53;19.97;;;16.70;99.90;16.00;100097;;;;568271;248;24151;-77
2023/09/13 01:24:07;;;;;;;28.50;19.47;;;16.60;99.90;16.00;100099;;;;568507;248;24096;-77
2023/09/13 01:26:38;;;;;;;28.10;18.90;;;16.60;99.90;16.00;100100;;;;568557;248;24134;-76
2023/09/13 01:29:09;;;;;;;27.50;19.00;;;16.60;99.90;16.00;100090;;;;568318;248;24098;-77
2023/09/13 01:31:37;;;;;;;27.23;19.50;;;16.60;99.90;16.00;100098;;;;568537;248;24084;-77
2023/09/13 01:34:02;;;;;;;29.27;20.77;;;16.50;99.90;15.90;100095;;;;565872;248;24092;-77
2023/09/13 01:36:30;;;;;;;25.47;19.27;;;16.50;99.90;15.90;100100;;;;568289;248;24079;-77
2023/09/13 01:38:58;;;;;;;28.87;19.40;;;16.50;99.90;15.90;100093;;;;568355;249;24098;-77
2023/09/13 01:41:33;;;;;;;26.37;18.53;;;16.50;99.90;15.90;100084;;;;567956;249;24126;-76
2023/09/13 01:44:01;;;;;;;27.57;19.83;;;16.50;99.90;15.90;100070;;;;567919;249;24088;-76
2023/09/13 01:46:40;;;;;;;27.97;20.37;;;16.50;99.90;15.90;100060;;;;567987;249;24115;-76
2023/09/13 01:49:13;;;;;;;25.77;18.93;;;16.40;99.90;15.90;100066;;;;568202;249;24116;-76
2023/09/13 01:51:38;;;;;;;28.43;20.50;;;16.40;99.90;15.90;100064;;;;567764;249;24081;-76
2023/09/13 01:54:06;;;;;;;26.07;19.10;;;16.40;99.90;15.80;100067;;;;567943;249;24090;-76
2023/09/13 01:56:34;;;;;;;30.73;21.57;;;16.40;99.90;15.80;100076;;;;568385;249;24155;-77
2023/09/13 01:59:02;;;;;;;29.40;20.57;;;16.40;99.90;15.80;100078;;;;568372;249;24096;-78
2023/09/13 02:01:31;;;;;;;29.60;19.63;;;16.30;99.90;15.70;100076;;;;568300;249;24079;-76
2023/09/13 02:04:00;;;;;;;26.97;20.07;;;16.30;99.90;15.70;100077;;;;568193;249;24151;-78
2023/09/13 02:06:28;;;;;;;29.67;19.93;;;16.20;99.90;15.60;100076;;;;568114;249;24092;-77
2023/09/13 02:08:57;;;;;;;25.83;19.77;;;16.20;99.90;15.60;100095;;;;576514;248;24095;-76
2023/09/13 02:11:26;;;;;;;29.03;19.17;;;16.20;99.90;15.60;100100;;;;567842;249;24140;-76
2023/09/13 02:13:54;;;;;;;32.50;20.70;;;16.20;99.90;15.60;100097;;;;567975;249;24070;-77
2023/09/13 02:16:22;;;;;;;29.00;21.67;;;16.20;99.90;15.60;100105;;;;569373;248;24111;-77
2023/09/13 02:18:50;;;;;;;28.27;20.90;;;16.20;99.90;15.60;100105;;;;569029;246;24155;-77
2023/09/13 02:21:19;;;;;;;31.60;22.50;;;16.20;99.90;15.60;100109;;;;568641;248;24120;-77
2023/09/13 02:23:47;;;;;;;33.03;21.27;;;16.20;99.90;15.60;100101;;;;568297;248;24089;-77
2023/09/13 02:26:21;;;;;;;27.27;21.13;;;16.20;99.90;15.60;100106;;;;568770;248;24104;-77
2023/09/13 02:28:49;;;;;;;31.97;22.47;;;16.10;99.90;15.60;100105;;;;576554;248;24136;-77
2023/09/13 02:31:31;;;;;;;31.73;21.33;;;16.20;99.90;15.60;100096;;;;568755;248;24156;-76
2023/09/13 02:33:55;;;;;;;35.03;23.70;;;16.10;99.90;15.60;100107;;;;568354;248;25134;-77
2023/09/13 02:36:24;;;;;;;35.07;23.73;;;16.20;99.90;15.60;100111;;;;568534;248;24100;-77
2023/09/13 02:38:52;;;;;;;39.27;22.80;;;16.20;99.90;15.50;100097;;;;568092;248;24105;-76
2023/09/13 02:41:21;;;;;;;36.37;24.00;;;16.10;99.90;15.50;100098;;;;568237;248;24171;-76
2023/09/13 02:43:49;;;;;;;30.93;20.97;;;16.10;99.90;15.50;100096;;;;568188;248;24088;-76
2023/09/13 02:46:18;;;;;;;35.17;23.43;;;16.10;99.90;15.50;100090;;;;568472;246;24095;-76
2023/09/13 02:48:45;;;;;;;38.90;23.53;;;16.10;99.90;15.50;100080;;;;568182;248;24070;-76
2023/09/13 02:51:13;;;;;;;35.97;23.43;;;16.10;99.90;15.40;100082;;;;567983;249;24098;-76
2023/09/13 02:53:42;;;;;;;34.23;24.40;;;16.00;99.90;15.40;100079;;;;572102;249;24130;-76
2023/09/13 02:56:14;;;;;;;31.30;23.43;;;15.90;99.90;15.40;100078;;;;568304;249;24100;-77
2023/09/13 02:58:43;;;;;;;40.90;24.10;;;15.90;99.90;15.30;100084;;;;567929;249;24081;-77
2023/09/13 03:01:11;;;;;;;39.60;24.57;;;15.90;99.90;15.30;100079;;;;565420;249;24081;-77
2023/09/13 03:03:37;;;;;;;38.70;24.53;;;15.80;99.90;15.20;100079;;;;568032;249;24097;-77
2023/09/13 03:06:08;;;;;;;36.40;23.47;;;15.80;99.90;15.20;100068;;;;567944;249;24092;-77
2023/09/13 03:08:34;;;;;;;33.80;22.23;;;15.80;99.90;15.20;100077;;;;568928;249;24093;-78
2023/09/13 03:11:12;;;;;;;37.83;24.33;;;15.80;99.90;15.20;100068;;;;568221;249;24084;-78
2023/09/13 03:13:39;;;;;;;37.57;22.93;;;15.70;99.90;15.10;100065;;;;576256;248;24083;-78
2023/09/13 03:16:11;;;;;;;34.27;22.73;;;15.70;99.90;15.10;100069;;;;568291;249;24072;-78
2023/09/13 03:18:38;;;;;;;27.60;20.97;;;15.70;99.90;15.10;100065;;;;567867;249;24092;-77
2023/09/13 03:21:09;;;;;;;33.80;22.90;;;15.70;99.90;15.10;100070;;;;565831;249;24073;-76
2023/09/13 03:23:38;;;;;;;35.50;22.63;;;15.60;99.90;15.00;100061;;;;568234;249;24118;-77
2023/09/13 03:26:12;;;;;;;28.80;21.23;;;15.60;99.90;15.00;100065;;;;568753;248;24082;-77
2023/09/13 03:28:40;;;;;;;32.43;21.40;;;15.60;99.90;15.00;100066;;;;568930;248;24165;-77
2023/09/13 03:31:12;;;;;;;29.97;21.70;;;15.50;99.90;14.90;100074;;;;568765;248;24082;-76
2023/09/13 03:33:40;;;;;;;26.17;21.73;;;15.50;99.90;14.90;100068;;;;576859;247;24108;-76
2023/09/13 03:36:11;;;;;;;36.23;22.37;;;15.50;99.90;14.90;100064;;;;568297;248;24080;-76
2023/09/13 03:38:39;;;;;;;32.90;21.77;;;15.50;99.90;14.90;100069;;;;569372;248;24092;-76
2023/09/13 03:41:06;;;;;;;32.70;21.77;;;15.50;99.90;14.90;100067;;;;569772;248;24091;-76
2023/09/13 03:43:34;;;;;;;29.20;21.47;;;15.50;99.90;14.90;100059;;;;568833;248;25172;-76
2023/09/13 03:46:03;;;;;;;33.70;22.43;;;15.50;99.90;14.90;100059;;;;577431;248;24082;-76
2023/09/13 03:48:37;;;;;;;31.87;22.80;;;15.50;99.90;14.90;100048;;;;568618;248;24092;-76
2023/09/13 03:51:01;;;;;;;31.20;21.87;;;15.50;99.90;14.90;100042;;;;568685;248;24083;-76
2023/09/13 03:53:29;;;;;;;35.03;22.60;;;15.50;99.90;14.90;100043;;;;568595;248;24111;-77
2023/09/13 03:55:58;;;;;;;30.27;22.30;;;15.50;99.90;15.00;100046;;;;568588;247;24100;-76
2023/09/13 03:58:26;;;;;;;34.13;23.83;;;15.50;99.90;15.00;100048;;;;568108;248;24144;-77
2023/09/13 04:00:57;;;;;;;34.00;23.47;;;15.50;99.90;15.00;100042;;;;568294;248;24108;-76
2023/09/13 04:03:25;;;;;;;34.57;23.47;;;15.50;99.90;14.90;100041;;;;576542;248;24181;-76
2023/09/13 04:05:53;;;;;;;34.47;23.43;;;15.50;99.90;14.90;100033;;;;576878;248;24086;-76
2023/09/13 04:08:21;;;;;;;33.50;22.77;;;15.50;99.90;14.90;100039;;;;568232;249;24111;-76
2023/09/13 04:10:49;;;;;;;33.50;22.63;;;15.50;99.90;14.90;100038;;;;567913;249;24084;-76
2023/09/13 04:13:18;;;;;;;33.03;22.30;;;15.50;99.90;14.90;100037;;;;568029;249;24097;-76
2023/09/13 04:15:47;;;;;;;31.70;22.13;;;15.50;99.90;14.90;100035;;;;567908;249;24111;-77
2023/09/13 04:18:15;;;;;;;34.47;22.40;;;15.50;99.90;14.90;100034;;;;568011;247;24088;-77
2023/09/13 04:20:45;;;;;;;36.83;22.60;;;15.50;99.90;14.90;100035;;;;567949;249;24151;-77
2023/09/13 04:23:13;;;;;;;34.73;22.83;;;15.50;99.90;14.90;100037;;;;567879;249;24161;-77
2023/09/13 04:25:41;;;;;;;43.97;24.20;;;15.50;99.90;15.00;100035;;;;567966;249;24126;-77
2023/09/13 04:28:10;;;;;;;33.13;22.60;;;15.50;99.90;15.00;100034;;;;567921;249;24077;-78
2023/09/13 04:30:39;;;;;;;32.03;23.70;;;15.60;99.90;15.00;100036;;;;568258;249;24103;-76
2023/09/13 04:33:07;;;;;;;35.57;22.80;;;15.60;99.90;15.10;100040;;;;568306;249;24098;-76
2023/09/13 04:35:36;;;;;;;33.27;22.80;;;15.70;99.90;15.10;100042;;;;568380;249;24077;-76
2023/09/13 04:38:04;;;;;;;32.37;21.37;;;15.70;99.90;15.20;100038;;;;569054;248;24095;-76
2023/09/13 04:40:32;;;;;;;33.07;21.47;;;15.70;99.90;15.20;100036;;;;569619;248;24073;-76
2023/09/13 04:43:06;;;;;;;40.23;25.03;;;15.80;99.90;15.30;100033;;;;568917;248;24095;-77
2023/09/13 04:45:34;;;;;;;35.30;23.47;;;15.90;99.90;15.40;100028;;;;577325;247;24141;-77
2023/09/13 04:48:02;;;;;;;34.50;22.53;;;15.90;99.90;15.50;100035;;;;568553;247;24097;-77
2023/09/13 04:50:30;;;;;;;30.67;22.37;;;16.00;99.90;15.60;100032;;;;568407;248;24095;-77
2023/09/13 04:52:59;;;;;;;36.53;23.37;;;16.20;99.90;15.70;100025;;;;568491;248;24100;-77
2023/09/13 04:55:27;;;;;;;35.10;25.73;;;16.30;99.90;15.80;100016;;;;568384;248;24089;-77
2023/09/13 04:57:57;;;;;;;33.37;24.60;;;16.50;99.90;15.90;100016;;;;568040;248;24115;-78
2023/09/13 05:00:26;;;;;;;39.23;25.10;;;16.60;99.90;16.00;100011;;;;568516;248;24115;-77
2023/09/13 05:02:53;;;;;;;39.97;24.17;;;16.60;99.90;16.10;100013;;;;568390;248;24089;-77
2023/09/13 05:05:22;;;;;;;37.50;24.87;;;16.70;99.90;16.20;100011;;;;568209;248;24139;-78
2023/09/13 05:07:51;;;;;;;35.83;24.20;;;16.80;99.90;16.30;100014;;;;568215;247;24131;-78
2023/09/13 05:10:19;;;;;;;31.13;23.50;;;16.80;99.90;16.40;100009;;;;568233;248;24077;-77
2023/09/13 05:12:49;;;;;;;51.72;37.20;;;16.90;99.90;16.60;100007;;;;563626;248;35255;-79
2023/09/13 05:15:17;;;;;;;45.50;30.73;;;17.10;99.90;16.70;100004;;;;568305;249;24096;-79
2023/09/13 05:17:45;;;;;;;43.90;27.00;;;17.20;99.90;16.90;100020;;;;568292;249;24073;-79
2023/09/13 05:20:13;;;;;;;41.50;27.20;;;17.40;99.90;17.00;100012;;;;568239;247;24069;-78
2023/09/13 05:22:46;;;;;;;39.50;27.73;;;17.70;99.90;17.20;100023;;;;576034;247;24068;-78
2023/09/13 05:25:11;;;;;;;39.50;29.73;;;17.90;99.90;17.30;100020;;;;567658;249;24091;-78
2023/09/13 05:27:39;;;;;;;40.90;26.57;;;18.00;99.90;17.40;100023;;;;568037;249;24088;-76
2023/09/13 05:30:08;;;;;;;39.83;28.57;;;18.10;99.90;17.50;100028;;;;567914;247;24123;-77
2023/09/13 05:32:36;;;;;;;38.63;28.40;;;18.10;99.90;17.70;100026;;;;576926;248;24077;-77
2023/09/13 05:35:11;;;;;;;43.17;28.10;;;18.30;99.90;17.80;100024;;;;568274;247;24131;-77
2023/09/13 05:37:35;;;;;;;39.80;28.97;;;18.40;99.90;18.00;100020;;;;568034;249;24077;-76
2023/09/13 05:40:06;;;;;;;37.10;28.70;;;18.50;99.90;18.10;100024;;;;568268;249;24066;-77
2023/09/13 05:42:34;;;;;;;40.83;29.07;;;18.60;99.90;18.20;100023;;;;568327;249;24117;-78
2023/09/13 05:45:02;;;;;;;42.80;28.30;;;18.70;99.90;18.30;100028;;;;576608;248;24081;-78
2023/09/13 05:47:30;;;;;;;38.30;28.97;;;18.90;99.90;18.50;100031;;;;568032;249;23144;-76
2023/09/13 05:49:58;;;;;;;41.37;28.23;;;19.10;99.90;18.60;100037;;;;568754;248;23114;-77
2023/09/13 05:52:26;;;;;;;40.43;28.97;;;19.20;99.90;18.80;100035;;;;569038;248;24084;-78
2023/09/13 05:54:54;;;;;;;41.23;26.90;;;19.40;99.90;18.90;100043;;;;577349;247;24109;-77
2023/09/13 05:57:22;;;;;;;33.60;26.07;;;19.50;99.90;19.00;100044;;;;568732;248;24080;-77
2023/09/13 05:59:50;;;;;;;32.43;25.10;;;19.60;99.90;19.10;100037;;;;568469;248;24132;-78
2023/09/13 06:02:18;;;;;;;39.10;25.10;;;19.70;99.90;19.20;100035;;;;568784;248;25156;-76
2023/09/13 06:04:45;;;;;;;37.50;24.63;;;19.80;99.90;19.40;100041;;;;568325;248;24108;-77
2023/09/13 06:07:20;;;;;;;40.90;24.73;;;20.10;99.90;19.60;100037;;;;568275;248;24110;-78
2023/09/13 06:09:45;;;;;;;44.20;25.27;;;20.40;99.90;19.80;100037;;;;568232;248;23159;-77
2023/09/13 06:12:13;;;;;;;36.72;27.73;;;20.40;99.90;19.90;100030;;;;571607;248;35396;-78
2023/09/13 06:14:45;;;;;;;25.47;22.70;;;20.60;99.90;20.10;100028;;;;568560;248;24105;-78
2023/09/13 06:17:09;;;;;;;34.70;21.40;;;20.70;99.90;20.30;100030;;;;566960;248;24122;-76
2023/09/13 06:19:37;;;;;;;30.83;22.30;;;20.90;99.90;20.60;100026;;;;568822;248;24094;-76
2023/09/13 06:22:05;;;;;;;31.17;22.40;;;21.20;99.90;21.00;100028;;;;568582;248;24166;-76
2023/09/13 06:24:33;;;;;;;48.27;21.93;;;21.50;99.90;21.40;100030;;;;568759;248;24084;-77
2023/09/13 06:27:02;;;;;;;33.07;22.87;;;22.40;99.90;21.90;100024;;;;576896;248;24077;-78
2023/09/13 06:29:30;;;;;;;35.83;24.87;;;22.70;99.90;22.20;100020;;;;566947;249;24062;-78
2023/09/13 06:31:59;;;;;;;39.40;28.10;;;23.10;99.90;22.50;100019;;;;568006;249;24111;-77
2023/09/13 06:34:28;;;;;;;32.53;24.97;;;23.50;99.90;23.10;100014;;;;567898;249;24068;-78
2023/09/13 06:36:56;;;;;;;32.07;23.70;;;24.20;99.90;23.70;100013;;;;567859;249;23138;-78
2023/09/13 06:39:25;;;;;;;30.67;24.43;;;24.60;99.90;24.10;100015;;;;567989;249;23102;-78
2023/09/13 06:41:54;;;;;;;38.93;25.63;;;24.80;99.90;24.20;100002;;;;567876;249;23110;-77
2023/09/13 06:44:23;;;;;;;32.83;24.60;;;24.80;99.90;24.10;100017;;;;567972;249;24086;-78
2023/09/13 06:46:51;;;;;;;34.53;29.45;;;24.80;99.90;24.10;100016;;;;571370;247;35285;-78
2023/09/13 06:49:19;;;;;;;38.13;27.23;;;24.80;99.90;24.20;100016;;;;568254;249;24072;-78
2023/09/13 06:51:48;;;;;;;37.77;26.27;;;24.90;99.90;24.40;100013;;;;568252;249;23083;-78
2023/09/13 06:54:18;;;;;;;35.90;26.90;;;25.20;99.90;24.70;100013;;;;568282;249;24147;-78
2023/09/13 06:56:45;;;;;;;37.47;26.43;;;25.20;99.90;25.00;100009;;;;568217;249;23111;-78
2023/09/13 06:59:12;;;;;;;39.87;26.77;;;25.50;99.90;25.30;100014;;;;568307;249;23075;-78
2023/09/13 07:01:41;;;;;;;34.40;25.30;;;25.90;99.90;25.40;100022;;;;569004;248;23113;-78
2023/09/13 07:04:09;;;;;;;34.40;24.90;;;25.90;99.90;25.30;100019;;;;568628;248;24100;-78
2023/09/13 07:06:37;;;;;;;41.70;26.70;;;25.90;99.90;25.00;100024;;;;569138;248;23110;-78
2023/09/13 07:09:06;;;;;;;38.07;26.00;;;25.30;99.90;24.50;100025;;;;568728;248;24082;-78
2023/09/13 07:11:34;;;;;;;36.53;27.17;;;25.00;99.90;24.30;100031;;;;568327;248;23226;-77
2023/09/13 07:14:03;;;;;;;44.23;28.30;;;24.70;99.90;24.00;100037;;;;568499;248;24109;-81
2023/09/13 07:16:32;;;;;;;42.00;25.70;;;24.40;99.90;23.70;100030;;;;558678;251;23135;-76
2023/09/13 07:19:01;;;;;;;35.83;25.73;;;24.20;99.90;23.50;100026;;;;560798;252;24148;-75
2023/09/13 07:21:30;;;;;;;41.00;26.77;;;24.10;99.90;23.60;100037;;;;577826;245;23109;-76
2023/09/13 07:23:58;;;;;;;37.87;26.13;;;24.10;99.90;23.60;100049;;;;559145;252;23121;-77
2023/09/13 07:26:27;;;;;;;36.27;25.67;;;24.20;99.90;23.70;100042;;;;559585;252;24114;-77
2023/09/13 07:28:56;;;;;;;34.70;24.47;;;24.30;99.90;23.80;100049;;;;575828;247;23111;-77
2023/09/13 07:31:23;;;;;;;40.77;26.30;;;24.30;99.90;23.90;100050;;;;561096;252;24109;-78
2023/09/13 07:33:51;;;;;;;35.77;23.23;;;24.50;99.90;24.00;100055;;;;556425;254;24153;-79
2023/09/13 07:36:19;;;;;;;34.13;24.70;;;24.50;99.90;23.90;100045;;;;565017;250;23102;-78
2023/09/13 07:38:47;;;;;;;36.03;24.33;;;24.50;99.90;23.90;100040;;;;573081;250;23148;-76
2023/09/13 07:41:15;;;;;;;37.57;25.60;;;24.40;99.90;23.90;100050;;;;564646;250;24138;-77
2023/09/13 07:43:43;;;;;;;34.00;25.20;;;24.50;99.90;23.90;100050;;;;564751;250;23169;-80
2023/09/13 07:46:12;;;;;;;36.80;25.33;;;24.40;99.90;23.80;100048;;;;564675;250;24106;-78
2023/09/13 07:48:39;;;;;;;38.93;24.43;;;24.40;99.90;23.80;100056;;;;573573;250;23139;-78
2023/09/13 07:51:07;;;;;;;36.37;25.30;;;24.40;99.90;23.80;100054;;;;565083;250;23143;-79
2023/09/13 07:53:39;;;;;;;42.97;25.93;;;24.40;99.90;23.90;100061;;;;565047;250;23145;-77
2023/09/13 07:56:04;;;;;;;32.83;23.07;;;24.40;99.90;23.90;100064;;;;564978;250;23124;-78
2023/09/13 07:58:33;;;;;;;32.10;22.93;;;24.50;99.90;24.10;100070;;;;565101;250;24080;-77
2023/09/13 08:01:02;;;;;;;29.30;23.30;;;24.80;99.90;24.30;100070;;;;565062;250;24100;-77
2023/09/13 08:03:30;;;;;;;31.77;23.93;;;24.80;99.90;24.40;100065;;;;564593;250;24156;-79
2023/09/13 08:06:01;;;;;;;30.13;23.03;;;24.90;99.90;24.40;100062;;;;564819;250;23152;-77
2023/09/13 08:08:28;;;;;;;33.20;23.33;;;25.00;99.90;24.50;100049;;;;564568;250;23112;-78
2023/09/13 08:10:56;;;;;;;31.60;21.60;;;25.00;99.90;25.20;100045;;;;564694;250;24128;-77
2023/09/13 08:13:23;;;;;;;30.27;22.60;;;25.50;99.90;26.50;100031;;;;565633;249;23090;-79
2023/09/13 08:15:55;;;;;;;30.57;22.60;;;26.70;99.90;27.90;100028;;;;565729;250;25166;-78
2023/09/13 08:18:22;;;;;;;30.93;22.10;;;28.10;99.90;28.50;100028;;;;565534;250;23112;-77
2023/09/13 08:20:50;;;;;;;31.87;21.87;;;28.90;99.90;29.10;100034;;;;565909;250;24132;-77
2023/09/13 08:23:18;;;;;;;32.72;22.40;;;29.40;99.90;30.50;100039;;;;560520;250;24123;-78
2023/09/13 08:25:46;;;;;;;24.75;20.27;;;30.80;99.90;31.20;100031;;;;559284;250;24073;-80
2023/09/13 08:28:14;;;;;;;32.45;21.58;;;31.70;99.90;31.80;100031;;;;565642;250;23109;-79
2023/09/13 08:30:43;;;;;;;31.48;21.30;;;32.70;99.90;32.10;100032;;;;566847;250;23085;-77
2023/09/13 08:33:11;;;;;;;29.00;22.15;;;32.70;99.90;33.10;100031;;;;573499;249;24132;-78
2023/09/13 08:35:39;;;;;;;24.80;21.08;;;33.60;99.90;34.40;100024;;;;565079;250;23135;-78
2023/09/13 08:38:06;;;;;;;24.45;20.67;;;34.80;96.60;35.30;100020;;;;564960;250;23173;-79
2023/09/13 08:40:34;;;;;;;29.10;18.20;;;35.80;93.90;36.50;100022;;;;565325;250;23088;-78
2023/09/13 08:43:02;;;;;;;24.77;20.55;;;37.00;91.30;37.80;100011;;;;564734;250;23109;-79
2023/09/13 08:45:33;;;;;;;25.17;18.10;;;38.20;82.80;38.90;100008;;;;564861;250;23117;-80
2023/09/13 08:48:01;;;;;;;19.50;17.48;;;39.40;78.70;40.00;100006;;;;564683;250;23191;-80
2023/09/13 08:50:33;;;;;;;20.20;18.23;;;40.50;70.50;40.50;100002;;;;564827;250;23120;-78
2023/09/13 08:53:00;;;;;;;24.70;17.77;;;41.20;65.60;40.70;100001;;;;559240;249;23172;-78
2023/09/13 08:55:27;;;;;;;19.75;17.00;;;41.70;64.10;40.90;100009;;;;564503;250;23114;-78
2023/09/13 08:57:58;;;;;;;19.17;16.52;;;41.90;60.30;41.30;100011;;;;565094;250;23095;-79
2023/09/13 09:00:26;;;;;;;21.33;18.87;;;42.20;59.60;41.90;100016;;;;561495;250;35339;-79
2023/09/13 09:02:57;;;;;;;18.98;16.90;;;43.10;56.80;41.90;100016;;;;564621;250;24516;-79
2023/09/13 09:05:25;;;;;;;18.95;16.95;;;43.00;56.70;42.50;100019;;;;573114;250;23169;-80
2023/09/13 09:07:56;;;;;;;23.20;18.35;;;43.50;54.30;42.60;100017;;;;564475;250;23113;-79
2023/09/13 09:10:21;;;;;;;22.73;17.55;;;43.70;53.70;42.60;100012;;;;564540;250;23095;-78
2023/09/13 09:12:49;;;;;;;24.73;16.83;;;43.70;53.70;42.90;100016;;;;564676;250;23108;-78
2023/09/13 09:15:17;;;;;;;17.90;16.12;;;44.00;53.90;43.40;100016;;;;565068;250;23097;-79
2023/09/13 09:17:52;;;;;;;18.75;16.87;;;44.70;51.80;43.40;100012;;;;564664;250;23118;-80
2023/09/13 09:20:17;;;;;;;18.20;16.08;;;44.60;51.80;43.40;100009;;;;573314;250;24130;-79
2023/09/13 09:22:47;;;;;;;18.60;16.70;;;44.70;49.70;42.80;100002;;;;564717;250;23104;-80
2023/09/13 09:25:15;;;;;;;17.70;15.00;;;44.30;50.40;42.80;99995;;;;574400;249;23079;-78
2023/09/13 09:27:44;;;;;;;17.02;14.95;;;44.60;50.90;43.30;99999;;;;568979;250;23106;-79
2023/09/13 09:30:14;;;;;;;19.80;13.80;;;44.40;51.00;43.10;99999;;;;565081;250;23095;-79
2023/09/13 09:32:44;;;;;;;14.30;12.93;;;44.40;50.30;43.20;100001;;;;565467;250;23220;-79
2023/09/13 09:35:14;;;;;;;19.15;14.80;;;44.50;50.40;43.50;100000;;;;574150;249;23212;-80
2023/09/13 09:37:40;;;;;;;18.00;14.95;;;44.80;50.30;43.20;100000;;;;565491;250;23158;-79
2023/09/13 09:40:14;;;;;;;18.62;15.93;;;44.80;49.10;41.30;99993;;;;565651;250;23084;-78
2023/09/13 09:42:39;;;;;;;18.70;16.15;;;43.50;49.70;39.50;99970;;;;565492;250;23103;-79
2023/09/13 09:45:07;;;;;;;18.23;14.93;;;41.80;52.00;39.10;99966;;;;568451;250;24089;-79
2023/09/13 09:47:41;;;;;;;15.77;14.18;;;40.80;55.50;39.50;99961;;;;565297;250;23103;-79
2023/09/13 09:50:08;;;;;;;16.83;15.15;;;40.70;54.90;39.90;99958;;;;565098;250;23096;-79
2023/09/13 09:52:35;;;;;;;17.48;14.70;;;41.10;54.90;39.40;99949;;;;564652;250;23104;-78
2023/09/13 09:55:04;;;;;;;17.80;15.73;;;40.80;54.80;38.40;99959;;;;572812;248;24122;-78
2023/09/13 09:57:31;;;;;;;24.77;15.77;;;40.00;56.00;37.20;99953;;;;572969;250;23161;-78
2023/09/13 10:00:02;;;;;;;18.33;16.42;;;39.00;57.40;35.80;99947;;;;567707;250;23111;-78
2023/09/13 10:02:30;;;;;;;16.75;15.18;;;36.20;62.20;34.60;99933;;;;564579;250;23166;-77
2023/09/13 10:04:58;;;;;;;17.40;15.63;;;35.00;64.70;33.70;99922;;;;573031;250;23105;-77
2023/09/13 10:07:27;;;;;;;19.92;15.07;;;33.90;67.30;32.60;99908;;;;573285;249;23100;-76
2023/09/13 10:09:56;;;;;;;18.12;15.00;;;32.80;70.80;31.70;99899;;;;567668;250;23122;-77
2023/09/13 10:12:24;;;;;;;16.37;14.75;;;32.30;73.20;31.40;99889;;;;567489;250;24093;-77
2023/09/13 10:14:55;;;;;;;17.60;14.80;;;32.20;73.10;31.00;99882;;;;567670;250;23161;-78
2023/09/13 10:17:24;;;;;;;18.77;15.18;;;31.80;74.30;30.70;99892;;;;565346;250;24089;-78
2023/09/13 10:19:48;;;;;;;19.05;15.30;;;31.40;75.80;30.40;99894;;;;564244;250;23214;-77
2023/09/13 10:22:16;;;;;;;22.92;16.40;;;31.10;78.10;29.90;99903;;;;572701;247;24125;-79
2023/09/13 10:24:52;;;;;;;17.33;15.55;;;30.60;80.00;29.40;99916;;;;573126;250;23170;-77
2023/09/13 10:27:18;;;;;;;20.52;16.70;;;30.10;82.90;28.90;99931;;;;564287;250;23204;-76
2023/09/13 10:29:46;;;;;;;18.77;15.27;;;29.50;87.90;28.50;99924;;;;565950;250;23143;-77
2023/09/13 10:32:14;;;;;;;22.45;15.50;;;29.10;90.00;28.50;99927;;;;559207;250;23161;-77
2023/09/13 10:34:49;;;;;;;22.87;16.12;;;29.00;90.40;28.60;99919;;;;573069;248;23134;-78
2023/09/13 10:37:41;;;;;;;24.92;17.23;;;29.00;90.40;29.00;99919;;;;574543;248;23126;-78
2023/09/13 10:40:34;;;;;;;17.85;14.90;;;29.30;90.60;29.40;99928;;;;574044;249;23188;-78
2023/09/13 10:43:01;;;;;;;18.67;14.60;;;29.70;90.00;29.30;99922;;;;565616;250;23128;-78
2023/09/13 10:45:29;;;;;;;18.52;16.27;;;29.70;88.30;29.10;99916;;;;568563;250;24117;-78
2023/09/13 10:47:58;;;;;;;22.65;15.48;;;29.60;89.90;29.00;99916;;;;568472;250;23125;-78
2023/09/13 10:50:27;;;;;;;21.77;17.67;;;29.30;90.30;28.80;99913;;;;565384;250;23239;-78
2023/09/13 10:52:55;;;;;;;20.27;16.65;;;29.20;90.80;28.70;99913;;;;568070;250;23121;-78
2023/09/13 10:55:24;;;;;;;21.27;16.80;;;29.20;90.90;28.70;99897;;;;562771;250;23126;-78
2023/09/13 10:57:56;;;;;;;19.83;15.27;;;29.20;90.90;28.90;99889;;;;564802;250;23109;-77
2023/09/13 11:00:20;;;;;;;20.17;14.60;;;29.20;90.80;28.80;99884;;;;567497;250;23116;-78
2023/09/13 11:02:47;;;;;;;18.40;14.75;;;29.20;90.80;28.70;99884;;;;559844;250;23158;-78